AMCK1: Grand River, Americus

Data processed at Sun Apr 30 2017 22:30


All information presented herein is the property of the government of the United States of America and may be revised or deleted at any time without prior notice.
Dissemination of this information without the expressed written consent of the Public Affairs Office, Tulsa District U.S. Army Corps of Engineers is strictly prohibited.
These data are gathered electronically and, as presented, have not undergone any form of quality control. These data are not guaranteed to be valid or correct.
Go to home page.
Go to station list.
Go to station map.

Upstream stations:

Downstream station:
Previous Day
Next Day
Current Day
    
SHEF ID:       AMCK1     NEOSHO R NR AMERICUS, KS
STATION TYPE:  

               PRECIP     STAGE  RIV-FLOW  BAT-LOAD
                   in        ft       cfs      volt
              Ccp-Rev   Ccp-Rev   Ccp-Rev   Ccp-Rev
(US/Central)
04/30 00:00      0.00      5.31       485     12.42
04/30 01:00      0.00      5.53       532     12.42
04/30 02:00      0.00      5.76       585     12.36
04/30 03:00      0.00      6.14       672     12.36
04/30 04:00      0.00      6.62      ----     12.36
04/30 05:00      0.01      7.12      ----     12.36
04/30 06:00      0.00      7.59      ----     12.36
04/30 07:00      0.00      8.02      ----     12.36
04/30 08:00      0.00      8.36      ----     12.36
04/30 09:00      0.00      8.64      ----     12.36
04/30 10:00      0.00      8.81      ----     12.42
04/30 11:00      0.00      8.92      ----     12.60
04/30 12:00      0.01      8.99      1430     12.89
04/30 13:00      0.00      9.16      1480     12.89
04/30 14:00      0.00      9.28      1510     12.89
04/30 15:00      0.00      9.42      1550     13.00
04/30 16:00      0.00      9.58      1600     13.24
04/30 17:00      0.00      9.66      1630     12.95
04/30 18:00      0.01      9.78      1660     12.71
04/30 19:00      0.00      9.94      1710     12.65
04/30 20:00      0.00     10.22      1800     12.60
04/30 21:00      0.00     10.51      1890     12.54
04/30 22:00      ----      ----      ----      ----
04/30 23:00      ----      ----      ----      ----